Time;durP1;ratioP1;P1;durP2;ratioP2;P2;SDS_P1;SDS_P2;PMS_P1;PMS_P2;Temp;Humidity;BMP_temperature;BMP_pressure;BME280_temperature;BME280_humidity;BME280_pressure;Samples;Min_cycle;Max_cycle;Signal;HPM_P1;HPM_P2
2022/08/15 00:00:42;;;;;;;9.95;8.18;;;;;;;22.94;44.87;100271.19;5020905;28;20378;-57
2022/08/15 00:03:23;;;;;;;13.45;8.25;;;;;;;23.01;44.43;100271.22;5030869;28;20052;-60
2022/08/15 00:05:49;;;;;;;12.25;8.35;;;;;;;22.96;44.86;100277.28;5030223;28;20041;-58
2022/08/15 00:08:14;;;;;;;11.73;8.68;;;;;;;22.95;45.09;100278.34;5031088;28;20029;-58
2022/08/15 00:10:44;;;;;;;8.88;7.78;;;;;;;22.90;44.84;100267.13;5027541;28;20026;-58
2022/08/15 00:13:24;;;;;;;14.45;8.60;;;;;;;23.05;44.90;100284.31;5010113;28;20462;-58
2022/08/15 00:15:51;;;;;;;10.00;8.82;;;;;;;23.07;44.79;100290.41;5011210;28;20061;-58
2022/08/15 00:18:18;;;;;;;10.75;8.70;;;;;;;23.04;44.83;100279.88;5012681;28;20057;-59
2022/08/15 00:20:44;;;;;;;10.93;8.38;;;;;;;23.06;44.91;100279.72;5011787;28;20041;-58
2022/08/15 00:23:13;;;;;;;9.82;8.05;;;;;;;23.03;45.07;100285.53;5011258;28;20038;-56
2022/08/15 00:25:43;;;;;;;12.15;8.43;;;;;;;23.02;45.28;100281.09;5022149;28;20037;-57
2022/08/15 00:28:09;;;;;;;10.98;8.75;;;;;;;23.04;45.44;100281.78;5029419;28;20358;-60
2022/08/15 00:30:38;;;;;;;11.27;9.07;;;;;;;22.99;45.74;100289.69;5030149;28;20028;-58
2022/08/15 00:33:05;;;;;;;14.05;9.07;;;;;;;22.94;45.36;100284.84;5020474;28;20026;-69
2022/08/15 00:35:39;;;;;;;9.40;8.38;;;;;;;22.88;45.88;100282.88;5011317;28;20235;-58
2022/08/15 00:38:07;;;;;;;9.65;8.75;;;;;;;22.87;45.96;100282.03;5017938;28;20135;-64
2022/08/15 00:41:39;;;;;;;12.00;9.55;;;;;;;22.90;45.92;100288.97;5030993;28;20444;-58
2022/08/15 00:43:22;;;;;;;12.20;8.82;;;;;;;22.86;46.13;100294.00;5018217;28;20187;-57
2022/08/15 00:45:49;;;;;;;10.35;9.30;;;;;;;22.85;46.19;100292.31;5024024;28;20041;-57
2022/08/15 00:51:18;;;;;;;11.60;9.88;;;;;;;22.79;46.43;100293.91;5021718;28;20057;-58
2022/08/15 00:53:48;;;;;;;14.63;10.23;;;;;;;22.66;46.80;100288.28;5011046;28;20026;-57
2022/08/15 00:56:15;;;;;;;13.18;10.07;;;;;;;22.61;46.98;100290.75;5010574;28;20029;-57
2022/08/15 00:58:43;;;;;;;13.60;9.70;;;;;;;22.52;47.66;100295.47;5022960;28;20030;-58
2022/08/15 01:01:12;;;;;;;12.48;9.50;;;;;;;22.46;48.24;100299.84;5030628;28;20108;-54
2022/08/15 01:03:42;;;;;;;15.85;10.02;;;;;;;22.41;48.16;100304.97;5026263;28;20045;-58
2022/08/15 01:06:08;;;;;;;13.85;10.90;;;;;;;22.36;48.17;100299.25;5010515;28;20385;-56
2022/08/15 01:08:39;;;;;;;19.52;11.52;;;;;;;22.40;48.37;100303.28;5011216;28;20097;-57
2022/08/15 01:11:12;;;;;;;15.65;10.82;;;;;;;22.22;49.03;100284.59;5026717;28;20045;-53
2022/08/15 01:13:40;;;;;;;16.52;11.18;;;;;;;22.19;49.08;100307.66;5030364;28;20033;-59
2022/08/15 01:16:06;;;;;;;15.65;11.50;;;;;;;22.17;49.32;100300.69;5021319;28;20029;-70
2022/08/15 01:18:31;;;;;;;14.23;10.35;;;;;;;22.09;49.63;100301.63;5011452;28;20434;-57
2022/08/15 01:21:04;;;;;;;14.25;10.48;;;;;;;22.06;49.82;100302.00;5009214;28;20026;-58
2022/08/15 01:23:55;;;;;;;15.05;10.90;;;;;;;21.99;50.20;100298.34;5028954;28;20037;-58
2022/08/15 01:26:22;;;;;;;13.90;11.63;;;;;;;21.80;50.21;100279.59;5030372;28;20116;-56
2022/08/15 01:28:48;;;;;;;16.92;12.05;;;;;;;21.89;50.44;100310.34;5024876;28;20092;-56
2022/08/15 01:31:17;;;;;;;16.52;13.32;;;;;;;21.96;50.54;100307.72;5012468;28;20037;-55
2022/08/15 01:33:45;;;;;;;15.15;12.70;;;;;;;21.91;50.76;100316.44;5010735;28;20121;-59
2022/08/15 01:36:11;;;;;;;16.80;13.75;;;;;;;21.84;50.96;100307.34;5012016;28;20125;-56
2022/08/15 01:38:41;;;;;;;14.23;12.27;;;;;;;21.85;50.99;100309.03;5010782;28;20042;-68
2022/08/15 01:41:41;;;;;;;20.02;13.27;;;;;;;21.91;51.13;100307.44;5026762;28;20041;-71
2022/08/15 01:44:26;;;;;;;25.38;15.20;;;;;;;21.91;50.48;100311.00;5031207;28;20107;-58
2022/08/15 01:47:17;;;;;;;19.02;13.75;;;;;;;21.93;51.22;100313.56;5033237;28;20434;-58
2022/08/15 01:49:51;;;;;;;17.27;13.73;;;;;;;21.85;51.23;100309.03;5034082;28;20033;-57
2022/08/15 01:52:19;;;;;;;16.63;13.85;;;;;;;21.79;51.76;100320.69;5024901;28;20041;-60
2022/08/15 01:54:45;;;;;;;16.60;14.02;;;;;;;21.73;51.83;100315.97;5026561;28;20040;-58
2022/08/15 01:57:11;;;;;;;19.13;15.35;;;;;;;21.78;51.97;100321.72;5034016;28;20478;-60
2022/08/15 01:59:38;;;;;;;20.95;14.48;;;;;;;21.71;52.59;100323.50;5015129;28;20033;-59
2022/08/15 02:02:07;;;;;;;14.75;12.95;;;;;;;21.65;52.20;100323.19;5014025;28;20501;-57
2022/08/15 02:04:36;;;;;;;21.23;14.90;;;;;;;21.64;52.81;100326.06;5023661;28;20434;-59
2022/08/15 02:07:25;;;;;;;18.75;13.70;;;;;;;21.65;52.28;100315.00;5029056;28;20394;-59
2022/08/15 02:09:53;;;;;;;22.25;15.52;;;;;;;21.64;53.06;100323.34;5013832;28;20124;-58
2022/08/15 02:12:23;;;;;;;22.75;16.17;;;;;;;21.69;52.66;100322.81;5013558;28;20030;-61
2022/08/15 02:14:48;;;;;;;24.38;15.70;;;;;;;21.59;52.95;100318.44;5014185;28;20033;-59
2022/08/15 02:17:16;;;;;;;22.35;16.65;;;;;;;21.43;53.13;100302.25;5025792;28;20037;-59
2022/08/15 02:19:45;;;;;;;22.60;16.38;;;;;;;21.58;53.27;100324.94;5018145;28;20030;-61
2022/08/15 02:22:12;;;;;;;25.40;16.48;;;;;;;21.59;53.38;100323.06;5013220;28;20040;-60
2022/08/15 02:24:40;;;;;;;21.23;16.15;;;;;;;21.68;53.20;100334.75;5014166;28;20030;-60
2022/08/15 02:27:06;;;;;;;21.52;15.48;;;;;;;21.58;53.81;100324.94;5017216;28;20029;-55
2022/08/15 02:29:32;;;;;;;19.80;16.27;;;;;;;21.54;53.81;100331.78;5019740;28;20468;-59
2022/08/15 02:32:06;;;;;;;20.67;16.73;;;;;;;21.46;53.61;100304.59;5014215;28;20121;-57
2022/08/15 02:34:34;;;;;;;24.60;17.03;;;;;;;21.60;53.99;100335.66;5013389;28;20377;-58
2022/08/15 02:37:03;;;;;;;23.30;17.20;;;;;;;21.62;53.79;100337.13;5013313;28;20026;-57
2022/08/15 02:39:28;;;;;;;24.90;17.40;;;;;;;21.61;53.94;100334.63;5014210;28;20390;-59
2022/08/15 02:41:54;;;;;;;24.10;17.83;;;;;;;21.48;54.17;100310.72;5013241;28;20030;-56
2022/08/15 02:44:20;;;;;;;20.70;16.25;;;;;;;21.68;53.93;100341.03;5018093;28;20533;-59
2022/08/15 02:46:50;;;;;;;21.42;15.88;;;;;;;21.68;53.80;100342.91;5032817;28;20207;-55
2022/08/15 02:49:18;;;;;;;24.20;15.68;;;;;;;21.73;54.28;100348.69;5031948;28;20035;-59
2022/08/15 02:51:46;;;;;;;24.55;17.60;;;;;;;21.59;53.86;100314.88;5013157;28;20057;-56
2022/08/15 02:54:13;;;;;;;24.13;17.02;;;;;;;21.83;53.73;100354.69;5013029;28;20045;-62
2022/08/15 02:56:39;;;;;;;22.63;17.08;;;;;;;21.88;53.76;100341.34;5013218;28;20061;-57
2022/08/15 02:59:07;;;;;;;25.75;17.00;;;;;;;21.93;53.61;100347.09;5012802;28;20116;-57
2022/08/15 03:01:37;;;;;;;25.23;18.35;;;;;;;21.99;53.48;100352.84;5028834;28;20088;-56
2022/08/15 03:04:06;;;;;;;22.23;17.80;;;;;;;22.06;53.46;100342.88;5013155;28;20038;-55
2022/08/15 03:06:33;;;;;;;25.05;16.67;;;;;;;22.10;53.66;100346.09;5012847;28;20048;-56
2022/08/15 03:09:02;;;;;;;23.90;17.17;;;;;;;22.18;53.19;100346.81;5011451;28;20036;-51
2022/08/15 03:11:29;;;;;;;22.63;17.10;;;;;;;22.33;53.40;100348.72;5012749;28;20109;-56
2022/08/15 03:13:55;;;;;;;22.80;16.67;;;;;;;22.28;53.22;100330.19;5011806;28;20422;-56
2022/08/15 03:16:21;;;;;;;25.10;17.35;;;;;;;22.45;52.80;100347.22;5032212;28;20083;-58
2022/08/15 03:18:47;;;;;;;24.83;18.48;;;;;;;22.57;52.35;100344.88;5032405;28;20025;-60
2022/08/15 03:21:19;;;;;;;29.83;18.27;;;;;;;22.70;52.16;100349.66;5033073;28;20143;-69
2022/08/15 03:23:49;;;;;;;20.70;16.85;;;;;;;22.61;51.71;100318.03;5019647;28;20486;-56
2022/08/15 03:26:20;;;;;;;21.65;16.60;;;;;;;23.00;51.78;100355.06;5020954;28;20033;-58
2022/08/15 03:28:46;;;;;;;22.70;18.00;;;;;;;23.05;51.16;100347.13;5032344;28;20072;-54
2022/08/15 03:31:13;;;;;;;24.48;17.33;;;;;;;23.15;51.01;100356.88;5032001;28;20037;-54
2022/08/15 03:33:42;;;;;;;25.17;17.40;;;;;;;23.18;50.79;100348.31;5032409;28;20500;-56
2022/08/15 03:36:08;;;;;;;23.73;18.30;;;;;;;23.36;50.33;100354.19;5031788;28;20026;-58
2022/08/15 03:38:34;;;;;;;25.27;17.95;;;;;;;23.42;50.22;100359.94;5030432;28;20144;-55
2022/08/15 03:40:59;;;;;;;22.55;16.95;;;;;;;23.53;49.88;100356.66;5032435;28;20160;-55
2022/08/15 03:43:28;;;;;;;24.30;17.15;;;;;;;23.75;49.66;100362.97;5030238;28;20048;-54
2022/08/15 03:45:58;;;;;;;22.38;18.02;;;;;;;23.88;48.96;100355.88;5031722;28;20331;-57
2022/08/15 03:48:29;;;;;;;22.20;17.35;;;;;;;24.03;48.60;100361.28;5029612;28;20029;-57
2022/08/15 03:50:56;;;;;;;27.40;17.17;;;;;;;24.08;47.88;100315.00;5012584;28;20029;-56
2022/08/15 03:53:21;;;;;;;22.42;18.08;;;;;;;24.79;46.80;100352.22;5012010;28;20030;-54
2022/08/15 03:55:47;;;;;;;22.58;17.02;;;;;;;24.99;46.33;100345.97;5011908;28;20460;-57
2022/08/15 03:58:14;;;;;;;19.38;17.08;;;;;;;25.54;45.23;100357.91;5021384;28;20028;-59
2022/08/15 04:00:44;;;;;;;22.85;18.08;;;;;;;26.19;43.93;100355.34;5013574;28;20556;-60
2022/08/15 04:03:38;;;;;;;22.67;17.10;;;;;;;26.92;42.10;100330.59;5031715;28;20129;-56
2022/08/15 04:06:06;;;;;;;26.42;17.77;;;;;;;28.67;38.35;100344.72;5030986;28;20053;-58
2022/08/15 04:08:33;;;;;;;19.67;15.40;;;;;;;30.00;35.46;100351.22;5030827;28;20041;-59
2022/08/15 04:11:05;;;;;;;19.80;15.73;;;;;;;30.88;34.44;100356.72;5031633;28;20033;-59
2022/08/15 04:13:32;;;;;;;20.60;15.75;;;;;;;31.20;32.96;100350.69;5030766;28;20040;-59
2022/08/15 04:16:00;;;;;;;22.23;16.15;;;;;;;31.59;32.53;100360.22;5011753;28;20041;-57
2022/08/15 04:18:27;;;;;;;20.02;15.63;;;;;;;31.83;31.59;100355.38;5024326;28;20087;-60
2022/08/15 04:20:58;;;;;;;24.88;15.57;;;;;;;32.21;31.56;100356.47;5013382;28;20061;-59
2022/08/15 04:23:25;;;;;;;19.70;14.80;;;;;;;32.82;29.95;100353.94;5011407;28;20069;-60
2022/08/15 04:25:51;;;;;;;16.67;13.85;;;;;;;33.76;28.74;100345.41;5011544;28;20029;-61
2022/08/15 04:28:18;;;;;;;16.23;13.48;;;;;;;35.10;26.96;100348.03;5011505;28;20026;-71
2022/08/15 04:30:46;;;;;;;16.40;13.20;;;;;;;36.18;25.48;100363.03;5014755;28;20072;-60
2022/08/15 04:33:21;;;;;;;14.23;12.48;;;;;;;37.18;24.17;100351.97;5030055;28;20458;-59
2022/08/15 04:35:53;;;;;;;14.48;12.65;;;;;;;37.94;23.06;100352.75;5031197;28;20036;-58
2022/08/15 04:38:18;;;;;;;18.33;12.70;;;;;;;38.50;21.95;100347.66;5021585;28;20103;-60
2022/08/15 04:40:45;;;;;;;16.33;13.32;;;;;;;38.89;21.31;100349.38;5010005;28;20030;-59
2022/08/15 04:43:11;;;;;;;17.52;13.93;;;;;;;38.72;21.27;100359.13;5011317;28;20118;-62
2022/08/15 04:45:38;;;;;;;14.90;12.30;;;;;;;38.42;21.86;100349.97;5031126;28;20593;-59
2022/08/15 04:48:04;;;;;;;20.25;12.73;;;;;;;38.65;21.32;100358.66;5030747;28;20440;-59
2022/08/15 04:50:33;;;;;;;15.15;12.48;;;;;;;39.11;20.99;100351.56;5028184;28;20478;-59
2022/08/15 04:52:59;;;;;;;15.20;12.45;;;;;;;40.11;19.65;100349.59;5011510;28;20042;-59
2022/08/15 04:55:25;;;;;;;12.43;11.15;;;;;;;40.89;19.20;100364.81;5011038;28;20033;-61
2022/08/15 04:57:52;;;;;;;14.75;12.10;;;;;;;41.33;18.33;100357.63;5024724;28;20469;-62
2022/08/15 05:00:22;;;;;;;15.73;12.20;;;;;;;42.18;17.53;100358.75;5031266;28;20087;-59
2022/08/15 05:03:02;;;;;;;13.70;11.85;;;;;;;43.11;17.15;100352.34;5030446;28;20084;-60
2022/08/15 05:05:31;;;;;;;13.68;12.27;;;;;;;43.60;15.86;100360.56;5019303;28;20075;-59
2022/08/15 05:07:57;;;;;;;16.55;14.75;;;;;;;43.88;15.71;100360.16;5011165;28;20050;-60
2022/08/15 05:10:23;;;;;;;15.48;13.52;;;;;;;43.91;15.60;100353.03;5010657;28;20068;-61
2022/08/15 05:12:48;;;;;;;21.60;13.90;;;;;;;44.01;15.68;100351.81;5023709;28;20112;-61
2022/08/15 05:15:16;;;;;;;17.23;15.13;;;;;;;44.35;15.11;100354.84;5030767;28;20049;-59
2022/08/15 05:17:42;;;;;;;19.42;14.57;;;;;;;45.10;14.32;100356.16;5030866;28;20030;-60
2022/08/15 05:20:08;;;;;;;19.85;14.35;;;;;;;45.64;13.74;100357.28;5018006;28;20363;-61
2022/08/15 05:22:34;;;;;;;17.50;15.70;;;;;;;45.58;13.53;100359.50;5014488;28;20113;-61
2022/08/15 05:24:59;;;;;;;17.83;14.45;;;;;;;46.02;13.33;100364.66;5021227;28;20124;-61
2022/08/15 05:27:25;;;;;;;18.23;15.82;;;;;;;46.29;12.86;100351.84;5034581;28;20037;-62
2022/08/15 05:29:51;;;;;;;18.17;16.27;;;;;;;46.25;13.19;100359.41;5034517;28;20029;-63
2022/08/15 05:32:18;;;;;;;21.88;19.58;;;;;;;46.46;12.64;100351.94;5033823;28;20552;-60
2022/08/15 05:34:43;;;;;;;23.02;20.63;;;;;;;46.25;12.85;100355.72;5034844;28;20036;-59
2022/08/15 05:37:12;;;;;;;23.40;21.02;;;;;;;45.30;13.31;100355.28;5034669;28;20033;-63
2022/08/15 05:39:38;;;;;;;25.77;23.08;;;;;;;44.97;13.51;100356.09;5014288;28;20026;-60
2022/08/15 05:42:25;;;;;;;25.63;23.23;;;;;;;45.37;13.56;100360.41;5015936;28;20026;-61
2022/08/15 05:45:08;;;;;;;25.98;23.55;;;;;;;45.57;13.48;100344.53;5020314;28;20125;-68
2022/08/15 05:47:38;;;;;;;26.27;23.52;;;;;;;45.59;13.00;100350.69;5014737;28;20022;-60
2022/08/15 05:50:30;;;;;;;26.60;23.80;;;;;;;45.76;13.10;100351.69;5013889;28;20037;-60
2022/08/15 05:53:29;;;;;;;26.65;22.90;;;;;;;45.68;12.58;100342.09;5013795;28;20059;-62
2022/08/15 05:56:15;;;;;;;22.23;20.05;;;;;;;46.98;11.92;100341.81;5013222;28;20056;-61
2022/08/15 05:58:45;;;;;;;22.23;19.85;;;;;;;47.72;11.24;100349.13;5014192;28;20107;-59
2022/08/15 06:01:18;;;;;;;20.83;18.70;;;;;;;48.42;10.83;100341.94;5013533;28;20037;-60
2022/08/15 06:03:52;;;;;;;18.95;17.02;;;;;;;49.23;10.23;100348.16;5022854;28;20102;-59
2022/08/15 06:06:21;;;;;;;19.87;17.53;;;;;;;50.27;9.49;100350.41;5022967;28;20457;-61
2022/08/15 06:08:53;;;;;;;20.33;18.25;;;;;;;50.88;8.72;100347.56;5014064;28;20061;-59
2022/08/15 06:11:43;;;;;;;22.58;17.73;;;;;;;52.11;8.54;100340.28;5015193;28;20098;-61
2022/08/15 06:14:26;;;;;;;20.65;17.77;;;;;;;52.62;8.09;100340.56;5013743;28;20128;-60
2022/08/15 06:16:56;;;;;;;18.52;16.63;;;;;;;52.61;7.40;100338.94;5015017;28;20077;-59
2022/08/15 06:19:28;;;;;;;17.35;15.65;;;;;;;53.25;7.32;100343.25;5023771;28;20060;-60
2022/08/15 06:22:02;;;;;;;18.40;15.48;;;;;;;53.97;6.41;100329.41;5021549;28;20022;-60
2022/08/15 06:24:49;;;;;;;16.33;14.63;;;;;;;54.84;6.51;100350.06;5020979;28;20042;-60
2022/08/15 06:27:50;;;;;;;16.90;14.95;;;;;;;55.01;5.82;100339.72;5019501;28;20039;-58
2022/08/15 06:30:26;;;;;;;16.52;14.65;;;;;;;54.86;6.42;100341.88;5030138;28;20478;-58
2022/08/15 06:32:54;;;;;;;15.73;14.13;;;;;;;55.39;5.84;100332.56;5030948;28;20038;-59
2022/08/15 06:35:26;;;;;;;14.90;13.60;;;;;;;56.25;5.46;100336.72;5031015;28;20060;-61
2022/08/15 06:38:09;;;;;;;14.45;12.95;;;;;;;57.28;5.56;100348.56;5019481;28;20080;-58
2022/08/15 06:40:52;;;;;;;13.43;12.23;;;;;;;57.20;4.84;100342.91;5029025;28;20116;-58
2022/08/15 06:43:18;;;;;;;12.98;11.88;;;;;;;56.90;4.54;100333.03;5017992;28;20044;-58
2022/08/15 06:45:48;;;;;;;13.23;11.88;;;;;;;57.33;3.95;100348.91;5013540;28;20038;-58
2022/08/15 06:48:18;;;;;;;11.65;10.65;;;;;;;57.65;3.90;100346.75;5024062;28;20038;-59
2022/08/15 06:50:50;;;;;;;11.23;10.13;;;;;;;57.80;3.66;100343.59;5012306;28;20030;-55
2022/08/15 06:53:44;;;;;;;11.60;8.93;;;;;;;57.74;4.27;100341.22;5014457;28;20032;-59
2022/08/15 06:56:28;;;;;;;9.40;8.30;;;;;;;57.69;4.28;100341.75;5013122;28;20037;-62
2022/08/15 06:59:21;;;;;;;8.02;6.75;;;;;;;57.61;3.60;100345.97;5012883;28;20038;-65
2022/08/15 07:01:49;;;;;;;7.05;5.70;;;;;;;57.42;3.30;100336.00;5012262;28;20050;-60
2022/08/15 07:04:39;;;;;;;6.90;6.30;;;;;;;56.67;3.95;100350.19;5017594;28;20041;-60
2022/08/15 07:07:12;;;;;;;5.68;5.28;;;;;;;56.14;4.52;100345.47;5031574;28;20056;-59
2022/08/15 07:09:52;;;;;;;5.85;5.35;;;;;;;56.20;4.06;100342.94;5032262;28;20386;-59
2022/08/15 07:12:36;;;;;;;5.95;5.45;;;;;;;56.42;4.66;100345.56;5032374;28;20040;-63
2022/08/15 07:15:04;;;;;;;5.10;4.72;;;;;;;55.09;4.68;100340.53;5032466;28;20481;-58
2022/08/15 07:17:48;;;;;;;5.68;5.07;;;;;;;55.87;4.26;100336.69;5031701;28;20076;-61
2022/08/15 07:20:14;;;;;;;6.15;5.57;;;;;;;55.25;4.68;100344.94;5032409;28;20423;-59
2022/08/15 07:22:40;;;;;;;6.32;4.75;;;;;;;54.76;4.68;100337.03;5020944;28;20032;-57
2022/08/15 07:25:12;;;;;;;5.45;4.95;;;;;;;55.82;4.70;100363.00;5012277;28;20034;-58
2022/08/15 07:27:39;;;;;;;6.28;4.65;;;;;;;55.36;4.73;100358.00;5013846;28;20030;-61
2022/08/15 07:30:26;;;;;;;5.57;5.03;;;;;;;55.68;4.52;100358.19;5032182;28;20033;-58
2022/08/15 07:32:56;;;;;;;4.82;4.40;;;;;;;54.31;5.20;100346.97;5020606;28;20376;-57
2022/08/15 07:35:28;;;;;;;5.03;4.68;;;;;;;54.84;5.24;100358.69;5026587;28;20524;-58
2022/08/15 07:38:00;;;;;;;5.38;4.82;;;;;;;54.57;5.05;100336.25;5018909;28;20109;-59
2022/08/15 07:40:36;;;;;;;5.97;5.35;;;;;;;54.31;4.80;100344.09;5022579;28;20038;-60
2022/08/15 07:43:05;;;;;;;5.75;4.55;;;;;;;53.18;5.52;100334.66;5021035;28;20068;-54
2022/08/15 07:45:38;;;;;;;5.97;4.63;;;;;;;52.78;5.72;100322.25;5028830;28;20029;-57
2022/08/15 07:48:20;;;;;;;6.40;4.57;;;;;;;53.41;5.65;100322.06;5011433;28;20419;-55
2022/08/15 07:51:03;;;;;;;5.20;4.72;;;;;;;54.70;5.54;100330.06;5012248;28;20335;-59
2022/08/15 07:53:30;;;;;;;5.63;5.13;;;;;;;53.13;5.80;100326.50;5019859;28;20430;-59
2022/08/15 07:56:13;;;;;;;5.60;4.97;;;;;;;53.07;6.11;100331.78;5011540;28;20069;-60
2022/08/15 07:58:41;;;;;;;5.72;5.18;;;;;;;51.78;6.14;100335.50;5028467;28;20557;-60
2022/08/15 08:01:28;;;;;;;6.28;5.30;;;;;;;49.02;8.13;100334.31;5020673;28;20041;-60
2022/08/15 08:04:11;;;;;;;5.50;4.65;;;;;;;47.69;9.30;100324.34;5032021;28;20071;-62
2022/08/15 08:06:53;;;;;;;5.35;4.38;;;;;;;47.69;9.04;100313.00;5011494;28;20100;-61
2022/08/15 08:09:44;;;;;;;6.97;4.03;;;;;;;47.76;9.00;100326.53;5012565;28;20362;-60
2022/08/15 08:12:47;;;;;;;8.40;4.07;;;;;;;48.80;8.43;100333.06;5024781;28;20033;-62
2022/08/15 08:15:25;;;;;;;4.30;3.75;;;;;;;48.25;8.31;100320.44;5013745;28;20064;-60
2022/08/15 08:18:09;;;;;;;4.78;4.20;;;;;;;46.06;9.35;100345.78;5011102;28;20064;-61
2022/08/15 08:20:46;;;;;;;4.90;4.20;;;;;;;42.95;11.61;100321.03;5016413;28;20045;-67
2022/08/15 08:23:21;;;;;;;4.07;3.53;;;;;;;40.83;13.16;100333.22;5021953;28;20035;-69
2022/08/15 08:26:19;;;;;;;4.82;3.50;;;;;;;39.33;14.58;100311.75;5026624;28;20029;-67
2022/08/15 08:29:16;;;;;;;5.03;3.90;;;;;;;38.38;15.06;100326.53;5015926;28;20104;-61
2022/08/15 08:31:53;;;;;;;4.60;3.85;;;;;;;37.57;15.89;100318.75;5005874;28;20053;-59
2022/08/15 08:34:54;;;;;;;5.88;4.13;;;;;;;37.00;17.38;100319.13;5022222;28;20104;-60
2022/08/15 08:37:34;;;;;;;6.28;4.18;;;;;;;36.50;17.30;100328.34;5014538;28;20051;-60
2022/08/15 08:43:33;;;;;;;6.90;3.92;;;;;;;35.12;18.71;100322.69;5014277;28;20466;-62
2022/08/15 08:46:20;;;;;;;5.00;3.60;;;;;;;34.89;18.77;100322.06;5025361;28;20025;-61
2022/08/15 08:49:20;;;;;;;4.15;3.50;;;;;;;34.52;18.85;100306.44;5028314;28;20046;-61
2022/08/15 08:51:48;;;;;;;6.88;3.15;;;;;;;34.15;19.59;100320.13;5009358;28;20073;-60
2022/08/15 08:54:26;;;;;;;5.30;3.00;;;;;;;34.06;19.50;100305.09;5013382;28;20116;-60
2022/08/15 08:56:55;;;;;;;3.92;2.70;;;;;;;34.06;19.07;100316.19;5018488;28;20044;-61
2022/08/15 08:59:29;;;;;;;3.58;2.67;;;;;;;34.10;18.16;100289.53;5018099;28;20417;-62
2022/08/15 09:02:05;;;;;;;5.18;2.55;;;;;;;34.27;18.34;100316.31;5010947;28;20050;-61
2022/08/15 09:04:44;;;;;;;3.10;2.75;;;;;;;34.29;18.32;100317.69;5027058;28;20091;-61
2022/08/15 09:07:14;;;;;;;5.50;3.38;;;;;;;34.13;18.96;100307.63;5024338;28;20093;-61
2022/08/15 09:09:43;;;;;;;4.68;3.15;;;;;;;34.01;18.56;100314.22;5021507;28;20474;-61
2022/08/15 09:15:05;;;;;;;9.70;3.53;;;;;;;33.36;19.37;100295.69;5018923;28;20038;-65
2022/08/15 09:17:36;;;;;;;6.25;3.20;;;;;;;33.09;19.62;100322.63;5012838;28;20084;-63
2022/08/15 09:20:01;;;;;;;3.80;3.40;;;;;;;32.62;20.78;100302.72;5012317;28;20124;-63
2022/08/15 09:22:28;;;;;;;8.10;3.25;;;;;;;32.35;20.68;100314.59;5024480;28;20034;-66
2022/08/15 09:24:54;;;;;;;4.45;3.30;;;;;;;32.02;21.32;100319.09;5014597;28;20037;-61
2022/08/15 09:27:22;;;;;;;9.02;3.10;;;;;;;31.99;21.42;100314.06;5010901;28;20056;-60
2022/08/15 09:30:04;;;;;;;7.65;3.05;;;;;;;32.14;20.79;100319.84;5009894;28;20042;-63
2022/08/15 09:32:44;;;;;;;9.27;3.50;;;;;;;31.78;21.60;100325.69;5010648;28;20107;-60
2022/08/15 09:35:28;;;;;;;4.35;3.30;;;;;;;31.81;21.08;100317.97;5021817;28;20034;-61
2022/08/15 09:38:06;;;;;;;5.90;2.90;;;;;;;31.73;21.26;100328.34;5020959;28;20067;-62
2022/08/15 09:41:01;;;;;;;5.65;3.20;;;;;;;31.54;21.43;100319.47;5013555;28;20497;-61
2022/08/15 09:43:41;;;;;;;4.25;2.92;;;;;;;31.45;21.41;100316.28;5021601;28;20111;-62
2022/08/15 09:46:38;;;;;;;4.60;2.83;;;;;;;31.68;20.55;100319.94;5029877;28;20050;-63
2022/08/15 09:49:27;;;;;;;3.65;3.10;;;;;;;31.52;20.61;100318.06;5026565;28;20037;-61
2022/08/15 09:52:35;;;;;;;5.40;3.50;;;;;;;31.60;20.79;100312.94;5028210;28;20037;-61
2022/08/15 09:55:25;;;;;;;5.82;2.90;;;;;;;31.65;20.75;100309.38;5007618;28;20042;-60
2022/08/15 09:57:53;;;;;;;4.30;3.13;;;;;;;31.51;20.92;100314.44;5013730;28;20083;-63
2022/08/15 10:00:28;;;;;;;5.28;3.50;;;;;;;31.70;20.92;100314.19;5014833;28;20041;-62
2022/08/15 10:03:01;;;;;;;4.85;3.85;;;;;;;31.95;20.79;100318.44;5027385;28;20046;-62
2022/08/15 10:05:44;;;;;;;4.25;3.78;;;;;;;32.29;20.13;100313.66;5018504;28;20046;-57
2022/08/15 10:08:13;;;;;;;3.58;3.28;;;;;;;32.21;20.19;100300.25;5015871;28;20078;-59
2022/08/15 10:10:52;;;;;;;5.78;3.97;;;;;;;32.52;19.93;100306.19;5012382;28;20033;-60
2022/08/15 10:13:45;;;;;;;5.53;4.53;;;;;;;32.68;19.84;100315.53;5021050;28;20114;-62
2022/08/15 10:16:41;;;;;;;5.43;4.75;;;;;;;32.49;19.75;100312.25;5028033;28;20121;-61
2022/08/15 10:19:09;;;;;;;5.05;4.25;;;;;;;32.13;20.16;100304.31;5012334;28;20076;-61
2022/08/15 10:21:39;;;;;;;11.02;4.80;;;;;;;32.05;20.20;100324.13;5024657;28;20040;-61
2022/08/15 10:24:22;;;;;;;5.05;4.05;;;;;;;32.00;20.33;100312.97;5028997;28;20041;-62
2022/08/15 10:27:07;;;;;;;8.55;5.20;;;;;;;32.16;20.72;100306.56;5032085;28;20048;-62
2022/08/15 10:29:36;;;;;;;7.75;3.83;;;;;;;32.37;20.50;100306.84;5023101;28;20033;-61
2022/08/15 10:32:03;;;;;;;7.75;4.38;;;;;;;32.74;19.86;100306.16;5027950;28;20052;-63
2022/08/15 10:34:37;;;;;;;5.53;3.97;;;;;;;33.06;20.03;100319.28;5017013;28;20112;-61
2022/08/15 10:37:20;;;;;;;7.45;4.78;;;;;;;32.96;19.40;100285.91;5019474;28;20044;-61
2022/08/15 10:40:23;;;;;;;6.05;4.45;;;;;;;32.98;20.07;100303.09;5015648;28;20030;-62
2022/08/15 10:43:11;;;;;;;6.63;3.95;;;;;;;33.06;19.62;100299.88;5029065;28;20037;-59
2022/08/15 10:45:55;;;;;;;7.25;4.63;;;;;;;33.28;19.86;100292.56;5024278;28;20909;-58
2022/08/15 10:48:53;;;;;;;9.02;5.90;;;;;;;33.50;19.44;100293.31;5023542;28;20037;-56
2022/08/15 10:51:25;;;;;;;7.85;5.82;;;;;;;33.64;19.53;100310.34;5013272;28;20042;-59
2022/08/15 10:54:09;;;;;;;6.45;5.80;;;;;;;33.93;18.81;100295.25;5018171;28;20037;-59
2022/08/15 10:56:38;;;;;;;6.78;5.32;;;;;;;33.90;18.96;100296.63;5012297;28;20073;-60
2022/08/15 10:59:09;;;;;;;5.30;4.57;;;;;;;33.97;18.82;100296.44;5028112;28;20131;-60
2022/08/15 11:01:37;;;;;;;7.43;5.47;;;;;;;34.05;18.89;100282.00;5030757;28;20053;-59
2022/08/15 11:04:14;;;;;;;6.97;4.80;;;;;;;34.14;18.74;100296.22;5030503;28;20390;-58
2022/08/15 11:06:45;;;;;;;5.55;4.90;;;;;;;34.13;19.11;100283.44;5026376;28;20037;-56
2022/08/15 11:09:19;;;;;;;5.05;4.38;;;;;;;34.06;19.24;100285.66;5012336;28;20038;-63
2022/08/15 11:11:53;;;;;;;7.32;4.43;;;;;;;33.79;19.05;100254.06;5019766;28;20033;-61
2022/08/15 11:14:33;;;;;;;7.35;5.03;;;;;;;33.81;19.36;100273.25;5032346;28;20477;-54
2022/08/15 11:17:01;;;;;;;6.22;5.63;;;;;;;33.40;20.04;100282.13;5023997;28;20036;-54
2022/08/15 11:19:33;;;;;;;7.25;5.93;;;;;;;33.15;19.76;100291.88;5016268;28;20072;-55
2022/08/15 11:22:03;;;;;;;12.57;9.18;;;;;;;32.79;20.60;100284.03;5016136;28;20160;-55
2022/08/15 11:24:37;;;;;;;11.05;8.45;;;;;;;32.42;20.66;100281.97;5022641;28;20056;-57
2022/08/15 11:27:17;;;;;;;10.48;7.57;;;;;;;32.38;21.10;100277.19;5023916;28;20144;-58
2022/08/15 11:29:44;;;;;;;8.13;7.03;;;;;;;32.17;21.23;100288.84;5023200;28;20039;-57
2022/08/15 11:32:22;;;;;;;12.88;8.85;;;;;;;32.31;20.84;100271.81;5015181;28;20440;-55
2022/08/15 11:34:50;;;;;;;13.85;9.48;;;;;;;32.13;21.23;100256.38;5011423;28;20422;-55
2022/08/15 11:37:19;;;;;;;10.80;7.25;;;;;;;32.21;21.61;100290.00;5018317;28;20465;-57
2022/08/15 11:40:08;;;;;;;8.20;6.63;;;;;;;32.17;21.17;100286.06;5024716;28;20473;-54
2022/08/15 11:42:38;;;;;;;6.82;6.05;;;;;;;31.65;22.12;100282.56;5029262;28;20049;-56
2022/08/15 11:45:07;;;;;;;7.00;5.95;;;;;;;31.47;22.82;100285.59;5025332;28;20041;-56
2022/08/15 11:47:34;;;;;;;11.13;6.55;;;;;;;31.43;22.71;100287.19;5024235;28;20072;-67
2022/08/15 11:50:04;;;;;;;11.02;7.47;;;;;;;31.48;22.53;100270.66;5030172;28;20029;-52
2022/08/15 11:52:35;;;;;;;11.25;7.13;;;;;;;31.46;22.98;100272.84;5031374;28;20559;-53
2022/08/15 11:55:30;;;;;;;11.07;6.75;;;;;;;31.70;22.15;100284.56;5027581;28;20025;-54